Time;durP1;ratioP1;P1;durP2;ratioP2;P2;SDS_P1;SDS_P2;PMS_P1;PMS_P2;Temp;Humidity;BMP_temperature;BMP_pressure;BME280_temperature;BME280_humidity;BME280_pressure;Samples;Min_cycle;Max_cycle;Signal;HPM_P1;HPM_P2
2022/08/23 00:02:16;;;;;;;19.20;10.93;;;;;;;;;;3359169;42;20148;-59
2022/08/23 00:04:47;;;;;;;21.45;10.90;;;;;;;;;;3367786;42;20148;-60
2022/08/23 00:07:18;;;;;;;21.93;11.37;;;;;;;;;;3365920;42;20471;-59
2022/08/23 00:09:50;;;;;;;22.42;10.98;;;;;;;;;;3363852;42;20622;-59
2022/08/23 00:12:22;;;;;;;23.20;11.38;;;;;;;;;;3363342;42;20236;-60
2022/08/23 00:14:53;;;;;;;19.08;10.00;;;;;;;;;;3363168;42;20102;-58
2022/08/23 00:17:25;;;;;;;22.50;9.82;;;;;;;;;;3367145;42;20572;-60
2022/08/23 00:19:56;;;;;;;18.60;10.50;;;;;;;;;;3364048;42;20107;-60
2022/08/23 00:22:27;;;;;;;21.52;10.57;;;;;;;;;;3372966;42;20103;-58
2022/08/23 00:24:58;;;;;;;20.17;10.98;;;;;;;;;;3365835;42;20166;-60
2022/08/23 00:27:29;;;;;;;23.83;11.35;;;;;;;;;;3372801;42;20095;-59
2022/08/23 00:30:01;;;;;;;21.10;10.70;;;;;;;;;;3365611;42;20151;-59
2022/08/23 00:32:34;;;;;;;17.30;9.77;;;;;;;;;;3367816;42;20115;-61
2022/08/23 00:35:06;;;;;;;21.48;11.13;;;;;;;;;;3365584;42;20189;-58
2022/08/23 00:37:37;;;;;;;18.52;10.10;;;;;;;;;;3366494;42;20118;-60
2022/08/23 00:40:09;;;;;;;17.58;10.23;;;;;;;;;;3363654;42;20151;-57
2022/08/23 00:48:54;;;;;;;19.10;10.30;;;;;;;;;;3370631;42;20576;-59
2022/08/23 00:51:34;;;;;;;18.08;9.68;;;;;;;;;;3357005;42;20190;-59
2022/08/23 00:54:06;;;;;;;21.80;10.88;;;;;;;;;;3357465;42;20099;-61
2022/08/23 00:56:38;;;;;;;19.20;10.10;;;;;;;;;;3365560;42;20083;-59
2022/08/23 00:59:09;;;;;;;19.27;9.90;;;;;;;;;;3364096;42;20096;-60
2022/08/23 01:01:42;;;;;;;21.65;10.38;;;;;;;;;;3365215;42;20095;-65
2022/08/23 01:04:15;;;;;;;19.90;9.57;;;;;;;;;;3359018;42;20554;-60
2022/08/23 01:06:51;;;;;;;19.27;9.80;;;;;;;;;;3362603;42;20092;-58
2022/08/23 01:09:22;;;;;;;20.10;9.63;;;;;;;;;;3351905;42;20162;-60
2022/08/23 01:12:09;;;;;;;17.50;9.80;;;;;;;;;;3372124;42;20144;-59
2022/08/23 01:14:46;;;;;;;19.50;10.23;;;;;;;;;;3353549;42;20170;-59
2022/08/23 01:17:23;;;;;;;18.83;10.00;;;;;;;;;;3365268;42;20661;-60
2022/08/23 01:19:59;;;;;;;19.83;10.00;;;;;;;;;;3365386;42;20102;-60
2022/08/23 01:23:07;;;;;;;21.48;10.05;;;;;;;;;;3363196;42;20182;-59
2022/08/23 01:25:38;;;;;;;17.63;9.77;;;;;;;;;;3348035;42;20274;-58
2022/08/23 01:28:10;;;;;;;19.60;9.90;;;;;;;;;;3347355;42;20590;-58
2022/08/23 01:30:41;;;;;;;19.08;9.90;;;;;;;;;;3361162;42;20096;-58
2022/08/23 01:33:12;;;;;;;17.77;9.52;;;;;;;;;;3354923;42;20167;-60
2022/08/23 01:35:50;;;;;;;18.17;9.50;;;;;;;;;;3349207;42;20204;-59
2022/08/23 01:38:22;;;;;;;16.90;9.53;;;;;;;;;;3353000;42;20632;-57
2022/08/23 01:40:53;;;;;;;17.85;8.93;;;;;;;;;;3369884;42;20514;-58
2022/08/23 01:43:25;;;;;;;16.65;9.15;;;;;;;;;;3359800;42;20562;-59
2022/08/23 01:45:56;;;;;;;18.60;9.30;;;;;;;;;;3365028;42;20143;-60
2022/08/23 01:48:27;;;;;;;17.45;9.90;;;;;;;;;;3365068;42;20555;-60
2022/08/23 01:50:58;;;;;;;14.90;8.57;;;;;;;;;;3364941;42;20102;-60
2022/08/23 01:53:29;;;;;;;15.93;9.07;;;;;;;;;;3369636;42;20159;-58
2022/08/23 01:56:00;;;;;;;19.80;8.70;;;;;;;;;;3366957;42;20570;-60
2022/08/23 01:58:32;;;;;;;18.90;9.20;;;;;;;;;;3364307;42;20103;-60
2022/08/23 02:01:03;;;;;;;18.02;9.77;;;;;;;;;;3363134;42;20088;-58
2022/08/23 02:03:36;;;;;;;18.30;9.27;;;;;;;;;;3348793;42;20092;-59
2022/08/23 02:06:07;;;;;;;18.33;9.65;;;;;;;;;;3364805;42;20664;-58
2022/08/23 02:11:30;;;;;;;17.38;9.68;;;;;;;;;;3354539;42;20080;-59
2022/08/23 02:14:06;;;;;;;15.63;9.32;;;;;;;;;;3370064;42;20104;-59
2022/08/23 02:16:39;;;;;;;17.00;9.53;;;;;;;;;;3364679;42;20103;-58
2022/08/23 02:19:12;;;;;;;17.30;9.20;;;;;;;;;;3364681;42;20166;-59
2022/08/23 02:21:43;;;;;;;17.40;9.13;;;;;;;;;;3364542;42;20112;-59
2022/08/23 02:24:20;;;;;;;18.10;9.65;;;;;;;;;;3364781;42;20097;-59
2022/08/23 02:26:55;;;;;;;17.13;9.20;;;;;;;;;;3369871;42;20096;-59
2022/08/23 02:29:28;;;;;;;14.77;9.20;;;;;;;;;;3361144;42;20095;-58
2022/08/23 02:31:59;;;;;;;15.68;9.00;;;;;;;;;;3355628;42;20153;-61
2022/08/23 02:34:30;;;;;;;17.73;9.25;;;;;;;;;;3362547;42;20668;-60
2022/08/23 02:37:02;;;;;;;16.98;9.38;;;;;;;;;;3364282;42;20163;-60
2022/08/23 02:39:33;;;;;;;16.00;9.32;;;;;;;;;;3364265;42;20143;-59
2022/08/23 02:42:05;;;;;;;17.80;9.00;;;;;;;;;;3368031;42;20100;-60
2022/08/23 02:44:37;;;;;;;15.82;8.95;;;;;;;;;;3350634;42;20171;-60
2022/08/23 02:47:10;;;;;;;18.48;9.55;;;;;;;;;;3366024;42;20135;-59
2022/08/23 02:49:42;;;;;;;21.08;9.40;;;;;;;;;;3366376;42;20108;-59
2022/08/23 02:52:13;;;;;;;17.50;9.10;;;;;;;;;;3360315;42;20142;-59
2022/08/23 02:54:44;;;;;;;15.73;9.17;;;;;;;;;;3359701;42;20088;-59
2022/08/23 02:57:16;;;;;;;16.75;9.18;;;;;;;;;;3368980;42;20101;-59
2022/08/23 02:59:47;;;;;;;15.20;9.13;;;;;;;;;;3355474;42;20108;-57
2022/08/23 03:02:18;;;;;;;17.38;9.82;;;;;;;;;;3362321;42;20138;-59
2022/08/23 03:04:50;;;;;;;17.17;9.60;;;;;;;;;;3367228;42;20096;-60
2022/08/23 03:07:21;;;;;;;16.57;9.37;;;;;;;;;;3359942;42;20108;-60
2022/08/23 03:09:52;;;;;;;14.68;8.85;;;;;;;;;;3357825;42;20108;-61
2022/08/23 03:12:23;;;;;;;18.63;10.38;;;;;;;;;;3366518;42;20166;-60
2022/08/23 03:14:55;;;;;;;17.02;9.27;;;;;;;;;;3364048;42;20119;-60
2022/08/23 03:17:26;;;;;;;14.95;9.07;;;;;;;;;;3364023;42;20122;-60
2022/08/23 03:19:57;;;;;;;17.13;9.87;;;;;;;;;;3364171;42;20578;-60
2022/08/23 03:22:28;;;;;;;19.77;9.52;;;;;;;;;;3364030;42;20099;-61
2022/08/23 03:25:00;;;;;;;14.82;9.40;;;;;;;;;;3369357;42;20147;-60
2022/08/23 03:27:31;;;;;;;16.27;9.20;;;;;;;;;;3352618;42;20737;-59
2022/08/23 03:30:04;;;;;;;20.20;9.85;;;;;;;;;;3364158;42;20104;-61
2022/08/23 03:32:35;;;;;;;23.17;10.03;;;;;;;;;;3365340;42;20100;-60
2022/08/23 03:35:07;;;;;;;24.55;9.73;;;;;;;;;;3364066;42;20095;-59
2022/08/23 03:37:38;;;;;;;20.85;9.40;;;;;;;;;;3364066;42;20107;-60
2022/08/23 03:40:10;;;;;;;16.55;9.25;;;;;;;;;;3355530;42;20158;-59
2022/08/23 03:42:41;;;;;;;16.67;9.32;;;;;;;;;;3360105;42;20636;-59
2022/08/23 03:45:12;;;;;;;25.87;9.73;;;;;;;;;;3360281;42;20092;-59
2022/08/23 03:47:44;;;;;;;25.10;10.00;;;;;;;;;;3363391;42;20107;-60
2022/08/23 03:50:15;;;;;;;20.35;9.80;;;;;;;;;;3363692;42;20088;-59
2022/08/23 03:52:46;;;;;;;40.45;11.52;;;;;;;;;;3361574;42;20139;-60
2022/08/23 03:55:17;;;;;;;40.30;10.85;;;;;;;;;;3357590;42;20099;-60
2022/08/23 03:57:49;;;;;;;25.30;9.80;;;;;;;;;;3362530;42;20183;-60
2022/08/23 04:00:20;;;;;;;15.25;9.65;;;;;;;;;;3358344;42;20166;-60
2022/08/23 04:02:51;;;;;;;37.28;10.65;;;;;;;;;;3361149;42;20102;-59
2022/08/23 04:05:22;;;;;;;16.33;9.15;;;;;;;;;;3357355;42;20118;-60
2022/08/23 04:07:53;;;;;;;15.98;9.40;;;;;;;;;;3362932;42;20088;-61
2022/08/23 04:10:25;;;;;;;15.90;9.80;;;;;;;;;;3360622;42;20089;-60
2022/08/23 04:12:56;;;;;;;17.15;9.32;;;;;;;;;;3365321;42;20096;-60
2022/08/23 04:15:27;;;;;;;17.85;8.90;;;;;;;;;;3363357;42;20166;-60
2022/08/23 04:17:59;;;;;;;16.20;9.77;;;;;;;;;;3365402;42;20133;-59
2022/08/23 04:20:30;;;;;;;18.48;9.52;;;;;;;;;;3358185;42;20098;-58
2022/08/23 04:23:01;;;;;;;17.33;10.30;;;;;;;;;;3372575;42;20099;-59
2022/08/23 04:25:33;;;;;;;17.52;9.30;;;;;;;;;;3365750;42;20183;-59
2022/08/23 04:28:04;;;;;;;14.93;9.32;;;;;;;;;;3365351;42;20118;-60
2022/08/23 04:30:35;;;;;;;18.92;10.40;;;;;;;;;;3358281;42;20095;-61
2022/08/23 04:33:07;;;;;;;16.45;9.80;;;;;;;;;;3370603;42;20104;-58
2022/08/23 04:35:40;;;;;;;16.13;10.07;;;;;;;;;;3356747;42;20163;-60
2022/08/23 04:38:11;;;;;;;15.93;10.00;;;;;;;;;;3368110;42;20100;-60
2022/08/23 04:43:32;;;;;;;16.48;9.95;;;;;;;;;;3352140;42;20100;-60
2022/08/23 04:46:04;;;;;;;16.90;10.13;;;;;;;;;;3360624;42;20165;-60
2022/08/23 04:48:35;;;;;;;19.27;9.83;;;;;;;;;;3369819;42;20612;-59
2022/08/23 04:51:06;;;;;;;16.42;9.95;;;;;;;;;;3364537;42;20216;-60
2022/08/23 04:53:38;;;;;;;16.77;10.23;;;;;;;;;;3363957;42;20106;-59
2022/08/23 04:56:09;;;;;;;19.02;11.15;;;;;;;;;;3362314;42;20084;-60
2022/08/23 04:58:40;;;;;;;15.50;9.25;;;;;;;;;;3362460;42;20110;-60
2022/08/23 05:01:14;;;;;;;16.73;9.87;;;;;;;;;;3364774;42;20096;-62
2022/08/23 05:03:46;;;;;;;16.98;10.27;;;;;;;;;;3370440;42;20418;-60
2022/08/23 05:06:17;;;;;;;16.83;10.18;;;;;;;;;;3364440;42;20100;-59
2022/08/23 05:08:48;;;;;;;15.25;9.80;;;;;;;;;;3368842;42;20111;-60
2022/08/23 05:11:19;;;;;;;18.67;9.50;;;;;;;;;;3368732;42;20100;-60
2022/08/23 05:13:50;;;;;;;17.10;9.10;;;;;;;;;;3362453;42;20099;-60
2022/08/23 05:16:22;;;;;;;16.10;9.75;;;;;;;;;;3361937;42;20108;-60
2022/08/23 05:18:53;;;;;;;15.43;9.85;;;;;;;;;;3370739;42;20235;-61
2022/08/23 05:21:24;;;;;;;20.92;9.70;;;;;;;;;;3364701;42;20521;-60
2022/08/23 05:23:55;;;;;;;18.85;10.35;;;;;;;;;;3361827;42;20577;-58
2022/08/23 05:26:27;;;;;;;22.80;9.77;;;;;;;;;;3364723;42;20613;-60
2022/08/23 05:28:58;;;;;;;19.75;10.05;;;;;;;;;;3360128;42;20163;-60
2022/08/23 05:31:29;;;;;;;26.85;10.65;;;;;;;;;;3367407;42;20099;-60
2022/08/23 05:34:01;;;;;;;21.17;10.25;;;;;;;;;;3366732;42;20161;-60
2022/08/23 05:36:33;;;;;;;20.63;10.82;;;;;;;;;;3361735;42;20104;-60
2022/08/23 05:39:05;;;;;;;22.07;11.33;;;;;;;;;;3371267;42;20151;-60
2022/08/23 05:41:37;;;;;;;19.23;10.73;;;;;;;;;;3370264;42;20096;-60
2022/08/23 05:44:09;;;;;;;21.42;10.75;;;;;;;;;;3362790;42;20155;-61
2022/08/23 05:46:40;;;;;;;20.15;11.10;;;;;;;;;;3365098;42;20144;-60
2022/08/23 05:49:12;;;;;;;21.15;10.85;;;;;;;;;;3372184;42;20088;-61
2022/08/23 05:51:43;;;;;;;20.30;11.47;;;;;;;;;;3365049;42;20506;-60
2022/08/23 05:54:14;;;;;;;23.65;11.35;;;;;;;;;;3364968;42;20092;-58
2022/08/23 05:56:45;;;;;;;20.23;11.52;;;;;;;;;;3364218;42;20522;-61
2022/08/23 05:59:18;;;;;;;22.23;12.02;;;;;;;;;;3364857;42;20091;-61
2022/08/23 06:01:49;;;;;;;23.25;12.35;;;;;;;;;;3359921;42;20118;-61
2022/08/23 06:04:20;;;;;;;19.67;11.27;;;;;;;;;;3370393;42;20092;-61
2022/08/23 06:06:52;;;;;;;22.38;11.65;;;;;;;;;;3358302;42;20189;-61
2022/08/23 06:09:23;;;;;;;24.23;11.88;;;;;;;;;;3364745;42;20095;-62
2022/08/23 06:11:55;;;;;;;26.45;11.95;;;;;;;;;;3371055;42;20494;-61
2022/08/23 06:14:27;;;;;;;24.65;11.38;;;;;;;;;;3371873;42;20147;-59
2022/08/23 06:16:58;;;;;;;17.57;11.27;;;;;;;;;;3364212;42;20154;-60
2022/08/23 06:19:29;;;;;;;22.00;11.48;;;;;;;;;;3364655;42;20091;-61
2022/08/23 06:22:00;;;;;;;20.00;11.20;;;;;;;;;;3364565;42;20570;-61
2022/08/23 06:24:32;;;;;;;19.15;10.90;;;;;;;;;;3364551;42;20107;-60
2022/08/23 06:27:03;;;;;;;20.38;11.02;;;;;;;;;;3364843;42;20096;-61
2022/08/23 06:29:34;;;;;;;19.63;10.40;;;;;;;;;;3362554;42;20107;-60
2022/08/23 06:32:06;;;;;;;22.45;10.98;;;;;;;;;;3360722;42;20102;-60
2022/08/23 06:34:38;;;;;;;22.20;11.18;;;;;;;;;;3360768;42;20100;-58
2022/08/23 06:37:13;;;;;;;23.13;11.45;;;;;;;;;;3364252;42;20087;-58
2022/08/23 06:39:44;;;;;;;22.23;11.30;;;;;;;;;;3362544;42;20123;-59
2022/08/23 06:42:16;;;;;;;19.63;10.93;;;;;;;;;;3356612;42;20099;-58
2022/08/23 06:44:47;;;;;;;21.63;10.73;;;;;;;;;;3357798;42;20114;-57
2022/08/23 06:47:18;;;;;;;21.60;10.90;;;;;;;;;;3372099;42;20289;-57
2022/08/23 06:49:49;;;;;;;20.67;12.05;;;;;;;;;;3358057;42;20174;-55
2022/08/23 06:52:21;;;;;;;25.92;11.25;;;;;;;;;;3357247;42;20099;-59
2022/08/23 06:54:52;;;;;;;18.73;10.67;;;;;;;;;;3366089;42;20562;-58
2022/08/23 06:57:23;;;;;;;20.15;11.38;;;;;;;;;;3357088;42;20181;-57
2022/08/23 06:59:54;;;;;;;21.45;11.77;;;;;;;;;;3357833;42;20088;-57
2022/08/23 07:02:26;;;;;;;23.65;12.15;;;;;;;;;;3364385;42;20117;-57
2022/08/23 07:04:57;;;;;;;19.02;12.77;;;;;;;;;;3356458;42;20139;-57
2022/08/23 07:07:28;;;;;;;18.15;10.93;;;;;;;;;;3366547;42;20340;-58
2022/08/23 07:10:00;;;;;;;18.38;10.18;;;;;;;;;;3357392;42;20509;-56
2022/08/23 07:12:31;;;;;;;16.25;10.02;;;;;;;;;;3357786;42;20104;-55
2022/08/23 07:15:02;;;;;;;16.35;9.60;;;;;;;;;;3358067;42;20095;-57
2022/08/23 07:17:33;;;;;;;17.63;11.10;;;;;;;;;;3358945;42;20562;-54
2022/08/23 07:20:05;;;;;;;16.83;10.18;;;;;;;;;;3358593;42;20096;-59
2022/08/23 07:22:36;;;;;;;18.90;10.80;;;;;;;;;;3360988;42;20599;-58
2022/08/23 07:25:08;;;;;;;16.45;11.02;;;;;;;;;;3361695;42;20099;-56
2022/08/23 07:27:39;;;;;;;17.30;9.98;;;;;;;;;;3359746;42;20171;-58
2022/08/23 07:30:11;;;;;;;18.15;9.73;;;;;;;;;;3359954;42;20134;-59
2022/08/23 07:32:43;;;;;;;15.27;8.85;;;;;;;;;;3354001;42;20554;-57
2022/08/23 07:35:14;;;;;;;19.15;10.30;;;;;;;;;;3356476;42;20088;-56
2022/08/23 07:37:46;;;;;;;15.38;9.45;;;;;;;;;;3357940;42;20144;-56
2022/08/23 07:40:17;;;;;;;13.63;8.30;;;;;;;;;;3368490;42;20131;-57
2022/08/23 07:42:49;;;;;;;14.55;8.50;;;;;;;;;;3360410;42;20095;-59
2022/08/23 07:45:20;;;;;;;12.43;9.10;;;;;;;;;;3370883;42;20099;-58
2022/08/23 07:47:51;;;;;;;12.63;7.47;;;;;;;;;;3363143;42;20110;-57
2022/08/23 07:50:22;;;;;;;12.60;8.43;;;;;;;;;;3364408;42;20103;-56
2022/08/23 07:52:53;;;;;;;13.13;7.93;;;;;;;;;;3364377;42;20088;-57
2022/08/23 07:55:25;;;;;;;13.18;7.72;;;;;;;;;;3366916;42;20088;-58
2022/08/23 07:57:56;;;;;;;11.10;7.10;;;;;;;;;;3358453;42;20155;-58
2022/08/23 08:00:27;;;;;;;12.05;7.63;;;;;;;;;;3367780;42;20561;-58
2022/08/23 08:02:58;;;;;;;12.48;7.70;;;;;;;;;;3361565;42;20637;-58
2022/08/23 08:05:33;;;;;;;12.10;7.75;;;;;;;;;;3347334;42;20083;-57
2022/08/23 08:08:04;;;;;;;13.80;7.70;;;;;;;;;;3365534;42;20506;-57
2022/08/23 08:10:37;;;;;;;12.47;7.43;;;;;;;;;;3360113;42;20108;-56
2022/08/23 08:13:08;;;;;;;10.85;7.43;;;;;;;;;;3362441;42;20735;-57
2022/08/23 08:15:40;;;;;;;11.57;7.65;;;;;;;;;;3363177;42;20497;-58
2022/08/23 08:18:11;;;;;;;13.60;8.15;;;;;;;;;;3349910;42;20563;-59
2022/08/23 08:20:43;;;;;;;11.85;7.38;;;;;;;;;;3364107;42;20108;-58
2022/08/23 08:23:14;;;;;;;11.90;7.37;;;;;;;;;;3365163;42;20104;-57
2022/08/23 08:25:45;;;;;;;12.60;6.72;;;;;;;;;;3369501;42;20104;-59
2022/08/23 08:28:16;;;;;;;11.65;7.00;;;;;;;;;;3364357;42;20206;-56
2022/08/23 08:30:47;;;;;;;11.57;7.35;;;;;;;;;;3363919;42;20181;-54
2022/08/23 08:33:19;;;;;;;10.98;7.05;;;;;;;;;;3369760;42;20100;-58
2022/08/23 08:35:50;;;;;;;11.83;6.90;;;;;;;;;;3371783;42;20497;-57
2022/08/23 08:38:21;;;;;;;11.48;7.07;;;;;;;;;;3364490;42;20099;-57
2022/08/23 08:41:17;;;;;;;12.35;7.53;;;;;;;;;;3371114;42;20159;-58
2022/08/23 08:44:24;;;;;;;11.48;7.43;;;;;;;;;;3368873;42;20087;-58
2022/08/23 08:46:56;;;;;;;12.35;7.60;;;;;;;;;;3332873;42;20095;-58
2022/08/23 08:49:31;;;;;;;12.90;7.50;;;;;;;;;;3349802;42;20110;-57
2022/08/23 08:52:19;;;;;;;11.02;7.30;;;;;;;;;;3367015;42;20084;-57
2022/08/23 08:54:55;;;;;;;14.32;8.10;;;;;;;;;;3360133;42;20085;-57
2022/08/23 08:57:26;;;;;;;10.77;7.00;;;;;;;;;;3366068;42;20178;-57
2022/08/23 08:59:59;;;;;;;11.82;7.68;;;;;;;;;;3353411;42;20554;-58
2022/08/23 09:02:32;;;;;;;13.17;7.27;;;;;;;;;;3359204;42;20285;-56
2022/08/23 09:05:08;;;;;;;10.63;6.93;;;;;;;;;;3359332;42;20187;-58
2022/08/23 09:07:48;;;;;;;10.95;6.63;;;;;;;;;;3366242;42;20092;-56
2022/08/23 09:10:43;;;;;;;11.85;7.30;;;;;;;;;;3362143;42;20098;-54
2022/08/23 09:13:27;;;;;;;12.52;7.20;;;;;;;;;;3362857;42;20480;-58
2022/08/23 09:16:16;;;;;;;12.73;7.53;;;;;;;;;;3353642;42;20162;-58
2022/08/23 09:18:47;;;;;;;14.85;8.27;;;;;;;;;;3362784;42;20127;-58
2022/08/23 09:21:19;;;;;;;13.02;7.72;;;;;;;;;;3354768;42;20084;-59
2022/08/23 09:23:50;;;;;;;11.27;7.22;;;;;;;;;;3363290;42;20098;-57
2022/08/23 09:26:26;;;;;;;13.73;8.15;;;;;;;;;;3372900;42;20151;-58
2022/08/23 09:29:17;;;;;;;14.03;7.63;;;;;;;;;;3365128;42;20103;-58
2022/08/23 09:31:51;;;;;;;11.85;7.28;;;;;;;;;;3368579;42;20094;-57
2022/08/23 09:34:38;;;;;;;12.93;8.30;;;;;;;;;;3360195;42;20103;-58
2022/08/23 09:37:12;;;;;;;11.93;7.30;;;;;;;;;;3364921;42;20601;-57
2022/08/23 09:39:48;;;;;;;13.55;7.15;;;;;;;;;;3364254;42;20092;-58
2022/08/23 09:42:28;;;;;;;12.43;7.10;;;;;;;;;;3357267;42;20092;-57
2022/08/23 09:45:00;;;;;;;11.52;7.18;;;;;;;;;;3366871;42;20088;-57
2022/08/23 09:47:39;;;;;;;15.32;7.88;;;;;;;;;;3363263;42;20492;-57
2022/08/23 09:50:33;;;;;;;13.15;7.28;;;;;;;;;;3363878;42;20175;-58
2022/08/23 09:53:09;;;;;;;12.35;7.30;;;;;;;;;;3348242;42;20207;-56
2022/08/23 09:55:46;;;;;;;12.97;7.43;;;;;;;;;;3351930;42;20130;-56
2022/08/23 09:58:40;;;;;;;12.98;7.20;;;;;;;;;;3366475;42;20096;-58
2022/08/23 10:01:27;;;;;;;19.55;7.45;;;;;;;;;;3370789;42;20088;-57
2022/08/23 10:04:13;;;;;;;12.95;7.35;;;;;;;;;;3367187;42;20166;-58
2022/08/23 10:06:45;;;;;;;14.82;7.72;;;;;;;;;;3359033;42;20176;-58
2022/08/23 10:09:24;;;;;;;12.63;7.37;;;;;;;;;;3360768;42;20121;-56
2022/08/23 10:11:59;;;;;;;12.30;7.10;;;;;;;;;;3347440;42;20579;-58
2022/08/23 10:14:31;;;;;;;12.23;7.45;;;;;;;;;;3355276;42;20100;-59
2022/08/23 10:17:09;;;;;;;12.18;7.47;;;;;;;;;;3362142;42;20110;-58
2022/08/23 10:19:49;;;;;;;11.98;7.50;;;;;;;;;;3364886;42;20096;-58
2022/08/23 10:22:22;;;;;;;14.27;7.57;;;;;;;;;;3364079;42;20114;-57
2022/08/23 10:25:17;;;;;;;12.55;7.13;;;;;;;;;;3363659;42;20103;-57
2022/08/23 10:31:17;;;;;;;11.45;7.28;;;;;;;;;;3363424;42;20099;-57
2022/08/23 10:34:05;;;;;;;13.82;7.95;;;;;;;;;;3361828;42;20154;-57
2022/08/23 10:36:59;;;;;;;12.67;7.70;;;;;;;;;;3354643;42;20087;-57
2022/08/23 10:39:30;;;;;;;12.73;7.97;;;;;;;;;;3363391;42;20173;-58
2022/08/23 10:42:17;;;;;;;16.23;7.90;;;;;;;;;;3368984;42;20092;-57
2022/08/23 10:45:17;;;;;;;12.70;7.78;;;;;;;;;;3358958;42;20091;-57
2022/08/23 10:48:12;;;;;;;13.50;7.60;;;;;;;;;;3360912;42;20092;-58
2022/08/23 10:50:45;;;;;;;13.83;7.20;;;;;;;;;;3341492;42;20107;-59
2022/08/23 10:53:17;;;;;;;13.05;7.25;;;;;;;;;;3345239;42;20118;-58
2022/08/23 10:56:04;;;;;;;15.30;7.25;;;;;;;;;;3350595;42;20106;-58
2022/08/23 10:58:48;;;;;;;12.45;6.97;;;;;;;;;;3348672;42;20506;-58
2022/08/23 11:01:38;;;;;;;11.98;7.28;;;;;;;;;;3346647;42;20102;-60
2022/08/23 11:04:16;;;;;;;11.73;7.17;;;;;;;;;;3353301;42;20230;-59
2022/08/23 11:06:52;;;;;;;14.50;7.32;;;;;;;;;;3359085;42;20480;-59
2022/08/23 11:09:23;;;;;;;11.82;7.18;;;;;;;;;;3357089;42;20096;-56
2022/08/23 11:12:16;;;;;;;15.20;7.13;;;;;;;;;;3358819;42;20103;-58
2022/08/23 11:15:04;;;;;;;16.67;6.80;;;;;;;;;;3365884;42;20091;-58
2022/08/23 11:17:42;;;;;;;13.23;6.60;;;;;;;;;;3365801;42;20654;-59
2022/08/23 11:20:13;;;;;;;14.10;6.65;;;;;;;;;;3358328;42;20559;-57
2022/08/23 11:23:00;;;;;;;11.23;6.72;;;;;;;;;;3359114;42;20114;-57
2022/08/23 11:25:31;;;;;;;12.73;6.32;;;;;;;;;;3357975;42;20084;-59
2022/08/23 11:28:21;;;;;;;11.90;6.30;;;;;;;;;;3358849;42;20115;-55
2022/08/23 11:30:55;;;;;;;12.43;6.13;;;;;;;;;;3369759;42;20083;-57
2022/08/23 11:33:35;;;;;;;14.93;6.63;;;;;;;;;;3361045;42;20100;-58
2022/08/23 11:36:23;;;;;;;10.88;6.72;;;;;;;;;;3352716;42;20177;-60
2022/08/23 11:38:55;;;;;;;11.38;6.35;;;;;;;;;;3363377;42;20201;-58
2022/08/23 11:41:28;;;;;;;11.50;6.28;;;;;;;;;;3360886;42;20091;-59
2022/08/23 11:44:02;;;;;;;12.97;6.77;;;;;;;;;;3371385;42;20103;-58
2022/08/23 11:46:35;;;;;;;13.00;7.15;;;;;;;;;;3364984;42;20088;-58
2022/08/23 11:49:27;;;;;;;11.60;6.57;;;;;;;;;;3354911;42;20147;-58
2022/08/23 11:52:15;;;;;;;10.73;6.10;;;;;;;;;;3365438;42;20114;-55
2022/08/23 11:54:46;;;;;;;12.82;5.93;;;;;;;;;;3357035;42;20088;-58
2022/08/23 11:57:55;;;;;;;18.40;8.13;;;;;;;;;;3364185;42;20100;-57
2022/08/23 12:00:49;;;;;;;11.77;7.78;;;;;;;;;;3355524;42;20171;-58
2022/08/23 12:03:32;;;;;;;13.68;8.02;;;;;;;;;;3351881;42;20096;-58
2022/08/23 12:06:07;;;;;;;13.63;8.27;;;;;;;;;;3369302;42;20191;-56
2022/08/23 12:09:10;;;;;;;14.50;8.35;;;;;;;;;;3364334;42;20184;-58
2022/08/23 12:11:54;;;;;;;13.50;7.70;;;;;;;;;;3352945;42;20575;-58
2022/08/23 12:14:31;;;;;;;15.38;8.40;;;;;;;;;;3364884;42;20111;-58
2022/08/23 12:17:11;;;;;;;13.48;7.95;;;;;;;;;;3366153;42;20107;-58
2022/08/23 12:19:50;;;;;;;14.23;8.35;;;;;;;;;;3365283;42;20095;-60
2022/08/23 12:22:23;;;;;;;17.05;8.43;;;;;;;;;;3358205;42;20095;-57
2022/08/23 12:25:02;;;;;;;14.23;8.50;;;;;;;;;;3363887;42;20298;-58
2022/08/23 12:27:45;;;;;;;15.90;8.38;;;;;;;;;;3370486;42;20091;-57
2022/08/23 12:30:21;;;;;;;13.63;7.93;;;;;;;;;;3351852;42;20610;-58
2022/08/23 12:33:13;;;;;;;13.82;8.48;;;;;;;;;;3365384;42;20189;-59
2022/08/23 12:36:35;;;;;;;15.55;8.60;;;;;;;;;;3357169;42;20652;-57
2022/08/23 12:39:26;;;;;;;15.13;8.10;;;;;;;;;;3340274;42;20092;-57
2022/08/23 12:42:14;;;;;;;14.70;8.05;;;;;;;;;;3365076;42;20092;-58
2022/08/23 12:44:46;;;;;;;14.05;8.43;;;;;;;;;;3365857;42;20487;-58
2022/08/23 12:47:18;;;;;;;14.77;8.45;;;;;;;;;;3364868;42;20088;-57
2022/08/23 12:50:26;;;;;;;16.92;8.00;;;;;;;;;;3364139;42;20198;-58
2022/08/23 12:53:11;;;;;;;13.23;8.70;;;;;;;;;;3337236;42;20160;-58
2022/08/23 12:55:47;;;;;;;16.13;8.65;;;;;;;;;;3363985;42;20617;-58
2022/08/23 12:58:26;;;;;;;14.00;7.85;;;;;;;;;;3365216;42;20091;-56
2022/08/23 13:00:59;;;;;;;13.15;8.30;;;;;;;;;;3364439;42;20127;-56
2022/08/23 13:03:33;;;;;;;15.50;7.70;;;;;;;;;;3354139;42;20092;-58
2022/08/23 13:06:17;;;;;;;15.87;8.60;;;;;;;;;;3357859;42;20260;-59
2022/08/23 13:08:51;;;;;;;14.45;8.13;;;;;;;;;;3360127;42;20123;-58
2022/08/23 13:11:24;;;;;;;16.75;9.35;;;;;;;;;;3364657;42;20167;-59
2022/08/23 13:13:56;;;;;;;13.00;7.72;;;;;;;;;;3364736;42;20233;-55
2022/08/23 13:16:36;;;;;;;13.98;7.88;;;;;;;;;;3365110;42;20505;-57
2022/08/23 13:19:21;;;;;;;11.57;7.63;;;;;;;;;;3371426;42;20100;-58
2022/08/23 13:22:08;;;;;;;12.30;8.30;;;;;;;;;;3351297;42;20107;-58
2022/08/23 13:24:43;;;;;;;12.77;7.70;;;;;;;;;;3365704;42;20091;-58
2022/08/23 13:27:16;;;;;;;14.93;8.05;;;;;;;;;;3364839;42;20346;-58
2022/08/23 13:29:55;;;;;;;14.48;8.15;;;;;;;;;;3358206;42;20103;-58
2022/08/23 13:32:38;;;;;;;13.10;7.53;;;;;;;;;;3360970;42;20091;-59
2022/08/23 13:35:33;;;;;;;13.32;8.15;;;;;;;;;;3354903;42;20100;-57
2022/08/23 13:38:14;;;;;;;12.05;7.40;;;;;;;;;;3363803;42;20107;-59
2022/08/23 13:41:07;;;;;;;12.93;8.02;;;;;;;;;;3358702;42;20528;-56
2022/08/23 13:43:49;;;;;;;13.77;7.82;;;;;;;;;;3356593;42;20092;-58
2022/08/23 13:46:22;;;;;;;13.77;8.03;;;;;;;;;;3364447;42;20159;-58
2022/08/23 13:49:01;;;;;;;13.00;7.63;;;;;;;;;;3362312;42;20100;-57
2022/08/23 13:51:34;;;;;;;18.58;10.57;;;;;;;;;;3355464;42;20664;-57
2022/08/23 13:54:07;;;;;;;14.93;8.43;;;;;;;;;;3363866;42;20103;-54
2022/08/23 13:56:46;;;;;;;13.95;7.78;;;;;;;;;;3364823;42;20096;-57
2022/08/23 13:59:20;;;;;;;15.00;8.17;;;;;;;;;;3352210;42;20112;-57
2022/08/23 14:01:51;;;;;;;14.90;8.43;;;;;;;;;;3372569;42;20596;-57
2022/08/23 14:04:22;;;;;;;15.07;8.35;;;;;;;;;;3352112;42;20092;-55
2022/08/23 14:06:53;;;;;;;15.60;7.68;;;;;;;;;;3362582;42;20118;-60
2022/08/23 14:09:24;;;;;;;14.15;7.43;;;;;;;;;;3360496;42;20142;-57
2022/08/23 14:11:57;;;;;;;13.63;7.83;;;;;;;;;;3369556;42;20108;-57
2022/08/23 14:14:30;;;;;;;17.10;8.73;;;;;;;;;;3363301;42;20103;-58
2022/08/23 14:17:01;;;;;;;13.35;7.70;;;;;;;;;;3357256;42;20604;-57
2022/08/23 14:19:33;;;;;;;13.48;7.57;;;;;;;;;;3371387;42;20151;-58
2022/08/23 14:22:04;;;;;;;16.60;7.95;;;;;;;;;;3363726;42;20169;-57
2022/08/23 14:24:35;;;;;;;13.67;7.90;;;;;;;;;;3364330;42;20218;-58
2022/08/23 14:27:07;;;;;;;14.73;7.97;;;;;;;;;;3360061;42;20098;-57
2022/08/23 14:29:38;;;;;;;17.02;8.25;;;;;;;;;;3364355;42;20104;-57
2022/08/23 14:32:09;;;;;;;16.33;8.23;;;;;;;;;;3364065;42;20091;-57
2022/08/23 14:34:40;;;;;;;16.27;8.63;;;;;;;;;;3363965;42;20564;-56
2022/08/23 14:37:11;;;;;;;18.50;8.47;;;;;;;;;;3357550;42;20083;-56
2022/08/23 14:39:42;;;;;;;16.75;7.60;;;;;;;;;;3362060;42;20502;-57
2022/08/23 14:42:16;;;;;;;14.50;8.13;;;;;;;;;;3360455;42;20079;-56
2022/08/23 14:44:47;;;;;;;14.18;7.70;;;;;;;;;;3356928;42;20095;-54
2022/08/23 14:47:18;;;;;;;17.73;7.93;;;;;;;;;;3360175;42;20110;-54
2022/08/23 14:49:49;;;;;;;15.83;7.93;;;;;;;;;;3364601;42;20161;-55
2022/08/23 14:52:21;;;;;;;13.43;8.07;;;;;;;;;;3364112;42;20091;-57
2022/08/23 14:54:52;;;;;;;15.60;8.30;;;;;;;;;;3356412;42;20166;-58
2022/08/23 14:57:23;;;;;;;15.93;7.90;;;;;;;;;;3360688;42;20098;-58
2022/08/23 14:59:54;;;;;;;13.45;7.90;;;;;;;;;;3364141;42;20095;-57
2022/08/23 15:02:26;;;;;;;16.47;7.90;;;;;;;;;;3364264;42;20099;-60
2022/08/23 15:04:57;;;;;;;18.77;8.00;;;;;;;;;;3371055;42;20107;-56
2022/08/23 15:07:29;;;;;;;15.63;7.88;;;;;;;;;;3363579;42;20738;-57
2022/08/23 15:10:06;;;;;;;19.15;8.95;;;;;;;;;;3351056;42;20087;-57
2022/08/23 15:12:32;;;;;;;16.30;8.88;;;;;;;;;;3366401;42;20198;-57
2022/08/23 15:15:06;;;;;;;15.63;8.47;;;;;;;;;;3352883;42;20095;-58
2022/08/23 15:17:35;;;;;;;15.13;8.30;;;;;;;;;;3360562;42;20143;-57
2022/08/23 15:20:02;;;;;;;15.13;8.10;;;;;;;;;;3360700;42;20084;-58
2022/08/23 15:22:28;;;;;;;15.88;8.70;;;;;;;;;;3356653;42;20094;-55
2022/08/23 15:24:54;;;;;;;18.07;8.60;;;;;;;;;;3360142;42;20127;-57
2022/08/23 15:27:20;;;;;;;14.63;8.10;;;;;;;;;;3360316;42;20558;-57